Portada
METAR-TAF:

METAR-TAF

Aeroports :

Keokuk Municipal Airport

Keokuk, Iowa, Estats Units d'Amèrica

latitud: 40-28N, longitud: 091-26W, altitud: 205 m

Observació

L'informe es va fer fa 16 minuts, a les 16:55 UTC
Vent 6 kt del Sud-Est amb ràfegues de 11 kt
Temperatura 4°C
Humitat 100%
Pressió 1013 hPa
Visibilitat: 11.3 km
Cel cobert a una alçada de 2100 ft

METAR: KEOK 171655Z AUTO 13006G11KT 7SM OVC021 04/04 A2990 RMK AO2

Hora: 11:11 (17:11 UTC)


TAF: manca

Observacions i pronòstics meteorològics de més de 4000 aeroports (METAR i TAF).

Les estacions disponibles són els punts grocs i vermells al mapa.

Posi el ratolí al punt desitjat per veure el nom de l'estació.

Feu clic per veure les observacions i els pronòstics meteorològics.

Per canviar el mapa: feu clic els botons verds amb una creu de color negre per apropar; al botó verd amb un guió per allunyar la imatge; o en les fletxes verdes per a mapes adjacents.


METAR-TAF: